All
Lizard Island Airport (Lizard Island, Queensland) LZR Weather
There is no TAF data available at LZR or any nearby airports.
There is no METAR data available at LZR. Showing METAR data for YCFL (23 mi SW).
Recent YCFL METAR history (no data for LZR)
| Date | Time (AEST) | Flight Rules | Wind Dir. | Speed | Type | Height AGL (ft) | Visibility | Temp (°C) | Temp (°F) | Dew Point (°C) | Dew Point (°F) | Rel. Humid. | Pressure | Density Altitude | Remarks |
|---|---|---|---|---|---|---|---|---|---|---|---|---|---|---|---|
| 09-May | 12:00AM | n/a | 150° | 14 kt | Missing | 25° | 77° | 24° | 75° | 94% | 1013 mb | 1,252 ft | |||
| 08-May | 11:00PM | n/a | 140° | 16 kt | Missing | 25° | 77° | 24° | 75° | 94% | 1014 mb | 1,223 ft | |||
| 08-May | 10:00PM | n/a | 150° | 17 kt | Missing | 25° | 77° | 24° | 75° | 94% | 1014 mb | 1,223 ft | |||
| 08-May | 09:00PM | n/a | 160° | 16 kt | Missing | 25° | 77° | 24° | 75° | 94% | 1014 mb | 1,223 ft | |||
| 08-May | 08:00PM | n/a | 160° | 17 kt | Missing | 25° | 77° | 24° | 75° | 94% | 1013 mb | 1,252 ft | |||
| 08-May | 07:00PM | n/a | 150° | 15 kt | Missing | 25° | 77° | 24° | 75° | 94% | 1013 mb | 1,252 ft | |||
| 08-May | 06:00PM | n/a | 140° | 15 kt | Missing | 24° | 75° | 24° | 75° | 100% | 1012 mb | 1,162 ft | Wind gusting to 26 KT | ||
| 08-May | 05:00PM | n/a | 150° | 17 kt | Missing | 26° | 78° | 23° | 73° | 84% | 1012 mb | 1,402 ft | |||
| 08-May | 04:00PM | n/a | 160° | 19 kt | Missing | 27° | 80° | 24° | 75° | 84% | 1011 mb | 1,551 ft | |||
| 08-May | 03:00PM | n/a | 150° | 19 kt | Missing | 27° | 80° | 24° | 75° | 84% | 1011 mb | 1,551 ft | |||
| 08-May | 02:00PM | n/a | 160° | 18 kt | Missing | 26° | 78° | 24° | 75° | 89% | 1012 mb | 1,402 ft | |||
| 08-May | 01:06PM | n/a | 130° | 17 kt | Missing | 25° | 77° | 24° | 75° | 94% | 1012 mb | 1,282 ft | Wind gusting to 27 KT | ||
| 08-May | 12:08PM | n/a | 160° | 19 kt | Missing | 29° | 84° | 24° | 75° | 74% | 1013 mb | 1,732 ft | Wind gusting to 29 KT | ||
| 08-May | 11:00AM | n/a | 160° | 18 kt | Missing | 27° | 80° | 24° | 75° | 84% | 1014 mb | 1,463 ft | |||
| 08-May | 10:00AM | n/a | 150° | 19 kt | Missing | 28° | 82° | 24° | 75° | 79% | 1014 mb | 1,583 ft | |||
| 08-May | 09:00AM | n/a | 150° | 18 kt | Missing | 28° | 82° | 23° | 73° | 74% | 1014 mb | 1,583 ft | |||
| 08-May | 08:00AM | n/a | 160° | 17 kt | Missing | 27° | 80° | 24° | 75° | 84% | 1013 mb | 1,492 ft | |||
| 08-May | 07:00AM | n/a | 160° | 14 kt | Missing | 25° | 77° | 23° | 73° | 89% | 1013 mb | 1,252 ft | |||
| 08-May | 06:08AM | n/a | 160° | 15 kt | Missing | 25° | 77° | 22° | 71° | 83% | 1012 mb | 1,282 ft | Wind gusting to 25 KT | ||
| 08-May | 05:00AM | n/a | 160° | 15 kt | Missing | 25° | 77° | 22° | 71° | 83% | 1012 mb | 1,282 ft | |||
| 08-May | 04:00AM | n/a | 150° | 15 kt | Missing | 25° | 77° | 22° | 71° | 83% | 1012 mb | 1,282 ft | |||
| 08-May | 03:00AM | n/a | 160° | 16 kt | Missing | 26° | 78° | 22° | 71° | 79% | 1012 mb | 1,402 ft | |||
| 08-May | 02:00AM | n/a | 150° | 15 kt | Missing | 25° | 77° | 22° | 71° | 83% | 1012 mb | 1,282 ft | |||
| 08-May | 01:00AM | n/a | 150° | 14 kt | Missing | 25° | 77° | 22° | 71° | 83% | 1013 mb | 1,252 ft |
Login
| Your browser is unsupported. upgrade your browser |
